Time;durP1;ratioP1;P1;durP2;ratioP2;P2;SDS_P1;SDS_P2;PMS_P1;PMS_P2;Temp;Humidity;BMP_temperature;BMP_pressure;BME280_temperature;BME280_humidity;BME280_pressure;Samples;Min_cycle;Max_cycle;Signal;HPM_P1;HPM_P2
2021/03/05 00:00:27;;;;;;;6.25;3.97;;;21.60;35.90;;;;;;5093965;28;20411;-75
2021/03/05 00:02:53;;;;;;;7.90;3.83;;;21.60;35.90;;;;;;5070451;28;20036;-75
2021/03/05 00:05:18;;;;;;;1.58;1.35;;;21.60;35.90;;;;;;5095134;28;20036;-76
2021/03/05 00:07:44;;;;;;;8.77;3.25;;;21.60;35.90;;;;;;5093602;28;20031;-75
2021/03/05 00:10:12;;;;;;;8.05;2.80;;;21.60;35.90;;;;;;5094152;28;20032;-75
2021/03/05 00:12:37;;;;;;;5.30;2.60;;;21.60;35.90;;;;;;5092761;28;20028;-75
2021/03/05 00:15:04;;;;;;;8.73;1.83;;;21.60;35.90;;;;;;5092577;28;20040;-76
2021/03/05 00:17:30;;;;;;;7.18;2.78;;;21.60;35.90;;;;;;5093521;28;20028;-75
2021/03/05 00:19:56;;;;;;;6.60;2.85;;;21.60;35.90;;;;;;5094459;28;20024;-74
2021/03/05 00:22:21;;;;;;;6.53;2.00;;;21.60;35.90;;;;;;5094530;28;20488;-74
2021/03/05 00:24:47;;;;;;;5.30;2.38;;;21.60;35.90;;;;;;5094585;28;20032;-75
2021/03/05 00:27:12;;;;;;;8.93;2.50;;;21.60;35.90;;;;;;5075309;28;20122;-75
2021/03/05 00:29:38;;;;;;;3.50;1.25;;;21.50;35.80;;;;;;5092376;28;20085;-76
2021/03/05 00:32:25;;;;;;;7.50;2.13;;;21.50;35.90;;;;;;5092789;28;20468;-74
2021/03/05 00:34:51;;;;;;;8.85;2.17;;;21.50;35.80;;;;;;5090875;28;20043;-76
2021/03/05 00:37:17;;;;;;;5.15;2.03;;;21.50;35.80;;;;;;5091117;28;20036;-75
2021/03/05 00:39:42;;;;;;;5.93;2.20;;;21.50;35.90;;;;;;5092548;28;20123;-75
2021/03/05 00:42:08;;;;;;;4.10;1.25;;;21.50;35.80;;;;;;5092378;28;20499;-74
2021/03/05 00:44:34;;;;;;;6.63;1.50;;;21.50;35.80;;;;;;5093134;28;20036;-74
2021/03/05 00:46:59;;;;;;;2.85;1.05;;;21.40;35.80;;;;;;5089319;28;20507;-74
2021/03/05 00:49:25;;;;;;;4.95;1.67;;;21.40;35.80;;;;;;5074871;28;20077;-74
2021/03/05 00:51:50;;;;;;;5.88;1.30;;;21.40;35.80;;;;;;5093467;28;20396;-74
2021/03/05 00:54:16;;;;;;;7.32;2.00;;;21.40;35.80;;;;;;5093818;28;20030;-74
2021/03/05 00:56:42;;;;;;;8.75;1.73;;;21.40;35.80;;;;;;5093716;28;20026;-74
2021/03/05 00:59:07;;;;;;;5.50;2.00;;;21.40;35.80;;;;;;5093906;28;20034;-74
2021/03/05 01:01:33;;;;;;;7.25;2.08;;;21.40;35.80;;;;;;5074992;28;20032;-74
2021/03/05 01:03:58;;;;;;;5.70;1.42;;;21.40;35.80;;;;;;5072275;28;20047;-73
2021/03/05 01:06:24;;;;;;;5.13;1.60;;;21.30;35.80;;;;;;5090234;28;20032;-73
2021/03/05 01:08:50;;;;;;;7.53;1.77;;;21.30;35.70;;;;;;5075690;28;20057;-73
2021/03/05 01:11:21;;;;;;;7.97;2.00;;;21.30;35.70;;;;;;5092612;28;20035;-74
2021/03/05 01:13:47;;;;;;;4.82;1.80;;;21.30;35.80;;;;;;5092328;28;20067;-73
2021/03/05 01:16:13;;;;;;;7.35;1.70;;;21.30;35.70;;;;;;5075600;28;20060;-73
2021/03/05 01:18:38;;;;;;;5.80;1.67;;;21.30;35.80;;;;;;5091238;28;20043;-74
2021/03/05 01:21:04;;;;;;;4.40;1.67;;;21.20;35.70;;;;;;5091461;28;20028;-73
2021/03/05 01:23:30;;;;;;;5.97;2.35;;;21.20;35.70;;;;;;5089198;28;20044;-73
2021/03/05 01:25:56;;;;;;;4.38;1.60;;;21.20;35.70;;;;;;5091201;28;20074;-74
2021/03/05 01:28:21;;;;;;;6.97;1.98;;;21.20;35.70;;;;;;5091803;28;20111;-73
2021/03/05 01:30:47;;;;;;;3.20;1.48;;;21.20;35.70;;;;;;5089670;28;20020;-74
2021/03/05 01:33:13;;;;;;;13.32;2.53;;;21.20;35.70;;;;;;5088057;28;20036;-73
2021/03/05 01:35:38;;;;;;;9.55;2.13;;;21.20;35.70;;;;;;5091478;28;20446;-73
2021/03/05 01:38:07;;;;;;;10.30;2.30;;;21.20;35.70;;;;;;5074275;28;20064;-73
2021/03/05 01:40:35;;;;;;;5.85;2.03;;;21.20;35.70;;;;;;5091809;28;20025;-73
2021/03/05 01:43:01;;;;;;;10.05;2.38;;;21.20;35.60;;;;;;5091234;28;20019;-73
2021/03/05 01:45:36;;;;;;;6.70;1.60;;;21.20;35.60;;;;;;5093161;28;20085;-72
2021/03/05 01:48:05;;;;;;;8.87;1.80;;;21.20;35.60;;;;;;5090884;28;20415;-73
2021/03/05 01:50:50;;;;;;;3.22;0.98;;;21.20;35.60;;;;;;5073531;28;20357;-73
2021/03/05 01:53:15;;;;;;;9.23;2.53;;;21.20;35.50;;;;;;5091505;28;20031;-73
2021/03/05 01:55:41;;;;;;;6.75;2.90;;;21.20;35.50;;;;;;5092326;28;20035;-73
2021/03/05 01:58:06;;;;;;;8.32;3.13;;;21.20;35.50;;;;;;5071458;28;20035;-73
2021/03/05 02:00:53;;;;;;;8.30;2.78;;;21.20;35.50;;;;;;5091064;28;20058;-73
2021/03/05 02:03:18;;;;;;;8.18;3.22;;;21.20;35.50;;;;;;5088701;28;20032;-73
2021/03/05 02:05:44;;;;;;;7.97;2.40;;;21.20;35.50;;;;;;5092816;28;20464;-73
2021/03/05 02:08:11;;;;;;;9.38;2.95;;;21.20;35.50;;;;;;5090789;28;20047;-73
2021/03/05 02:10:36;;;;;;;8.88;3.28;;;21.10;35.40;;;;;;5078271;28;20166;-73
2021/03/05 02:13:02;;;;;;;8.93;2.58;;;21.10;35.40;;;;;;5074482;28;20123;-73
2021/03/05 02:15:28;;;;;;;14.38;3.13;;;21.10;35.40;;;;;;5085043;28;20079;-73
2021/03/05 02:18:24;;;;;;;7.63;3.35;;;21.10;35.40;;;;;;5090903;28;20040;-73
2021/03/05 02:20:55;;;;;;;8.45;2.88;;;21.10;35.40;;;;;;5090648;28;20073;-73
2021/03/05 02:23:52;;;;;;;9.05;2.78;;;21.10;35.30;;;;;;5073619;28;20063;-73
2021/03/05 02:26:37;;;;;;;2.58;0.95;;;21.10;35.30;;;;;;5088651;28;20491;-73
2021/03/05 02:29:21;;;;;;;7.20;2.88;;;21.10;35.30;;;;;;5084737;28;20123;-72
2021/03/05 02:31:53;;;;;;;7.07;2.92;;;21.00;35.90;;;;;;5091372;28;20056;-72
2021/03/05 02:34:30;;;;;;;4.13;1.75;;;21.00;35.20;;;;;;5072911;28;20024;-72
2021/03/05 02:36:59;;;;;;;11.30;3.10;;;21.00;35.20;;;;;;5091751;28;20090;-73
2021/03/05 02:39:37;;;;;;;6.32;2.85;;;21.00;35.20;;;;;;5090984;28;20043;-72
2021/03/05 02:42:04;;;;;;;14.00;3.40;;;21.00;35.20;;;;;;5090138;28;20052;-73
2021/03/05 02:44:32;;;;;;;7.32;3.13;;;20.90;35.20;;;;;;5090040;28;20039;-72
2021/03/05 02:47:05;;;;;;;8.90;2.90;;;21.00;35.30;;;;;;5090346;28;20150;-73
2021/03/05 02:49:32;;;;;;;8.65;3.08;;;20.90;35.20;;;;;;5090416;28;20133;-73
2021/03/05 02:52:00;;;;;;;8.43;3.17;;;21.00;35.30;;;;;;5087972;28;20032;-72
2021/03/05 02:54:26;;;;;;;7.07;2.70;;;21.00;35.30;;;;;;5090329;28;20020;-73
2021/03/05 02:56:52;;;;;;;12.45;2.78;;;21.00;35.30;;;;;;5072751;28;20062;-73
2021/03/05 02:59:17;;;;;;;9.50;3.22;;;20.90;35.30;;;;;;5073212;28;20024;-73
2021/03/05 03:01:46;;;;;;;6.68;2.78;;;20.90;35.30;;;;;;5089947;28;20030;-75
2021/03/05 03:04:12;;;;;;;5.88;1.77;;;20.90;35.30;;;;;;5090469;28;20024;-76
2021/03/05 03:06:47;;;;;;;8.40;3.17;;;20.90;35.30;;;;;;5090119;28;20111;-76
2021/03/05 03:09:13;;;;;;;8.50;2.83;;;20.90;35.30;;;;;;5072476;28;20032;-75
2021/03/05 03:11:40;;;;;;;8.05;3.25;;;20.80;35.30;;;;;;5090726;28;20281;-75
2021/03/05 03:14:06;;;;;;;9.35;2.70;;;20.90;35.30;;;;;;5069638;28;20040;-75
2021/03/05 03:16:31;;;;;;;5.68;2.78;;;20.80;35.30;;;;;;5090121;28;20036;-75
2021/03/05 03:18:57;;;;;;;6.70;2.50;;;20.80;35.20;;;;;;5089602;28;20024;-75
2021/03/05 03:21:23;;;;;;;7.65;3.00;;;20.90;35.30;;;;;;5090429;28;20028;-74
2021/03/05 03:23:48;;;;;;;10.23;2.60;;;20.80;35.20;;;;;;5090323;28;20112;-74
2021/03/05 03:26:14;;;;;;;9.88;2.90;;;20.80;35.20;;;;;;5090106;28;20515;-75
2021/03/05 03:28:39;;;;;;;11.57;3.03;;;20.90;35.20;;;;;;5090398;28;20036;-75
2021/03/05 03:31:08;;;;;;;11.98;3.42;;;20.80;35.20;;;;;;5091517;28;20043;-76
2021/03/05 03:33:34;;;;;;;9.40;2.63;;;20.90;35.10;;;;;;5072870;28;20024;-75
2021/03/05 03:36:09;;;;;;;11.15;3.17;;;20.80;35.10;;;;;;5092486;28;20052;-75
2021/03/05 03:38:35;;;;;;;10.00;3.00;;;20.90;35.10;;;;;;5089518;28;20129;-75
2021/03/05 03:41:01;;;;;;;8.60;2.95;;;20.80;35.10;;;;;;5090772;28;20052;-75
2021/03/05 03:46:48;;;;;;;13.65;3.17;;;20.90;35.10;;;;;;5087152;28;20027;-73
2021/03/05 03:49:26;;;;;;;13.13;3.03;;;20.80;35.10;;;;;;5088842;28;20024;-73
2021/03/05 03:51:58;;;;;;;8.13;2.90;;;20.80;35.10;;;;;;5059005;28;20073;-73
2021/03/05 03:54:24;;;;;;;7.78;2.80;;;20.80;35.10;;;;;;5072997;28;20495;-73
2021/03/05 03:56:50;;;;;;;7.53;3.08;;;20.80;35.10;;;;;;5089656;28;20020;-73
2021/03/05 03:59:16;;;;;;;13.52;3.05;;;20.80;35.10;;;;;;5090678;28;20028;-74
2021/03/05 04:01:46;;;;;;;8.73;3.17;;;20.80;35.20;;;;;;5073258;28;20024;-73
2021/03/05 04:04:12;;;;;;;12.00;3.20;;;20.70;35.10;;;;;;5089573;28;20056;-73
2021/03/05 04:06:38;;;;;;;11.73;2.40;;;20.80;35.10;;;;;;5089171;28;20040;-73
2021/03/05 04:09:03;;;;;;;1.85;0.65;;;20.70;35.10;;;;;;5089357;28;20047;-73
2021/03/05 04:11:29;;;;;;;8.27;3.20;;;20.80;35.20;;;;;;5074810;28;20031;-73
2021/03/05 04:13:55;;;;;;;3.50;0.70;;;20.70;35.10;;;;;;5093194;28;20111;-73
2021/03/05 04:16:20;;;;;;;8.73;3.20;;;20.70;35.10;;;;;;5093500;28;20027;-73
2021/03/05 04:18:46;;;;;;;12.20;3.17;;;20.70;35.10;;;;;;5091916;28;20024;-73
2021/03/05 04:21:18;;;;;;;10.48;3.15;;;20.70;35.10;;;;;;5093223;28;20094;-74
2021/03/05 04:23:44;;;;;;;3.35;1.50;;;20.70;35.20;;;;;;5076143;28;20525;-72
2021/03/05 04:26:09;;;;;;;13.00;3.28;;;20.70;35.20;;;;;;5094647;28;20024;-72
2021/03/05 04:28:35;;;;;;;8.32;3.00;;;20.70;35.10;;;;;;5094876;28;20414;-73
2021/03/05 04:31:01;;;;;;;8.80;2.45;;;20.70;35.10;;;;;;5094087;28;20085;-74
2021/03/05 04:33:26;;;;;;;6.60;2.72;;;20.70;35.20;;;;;;5094812;28;20062;-74
2021/03/05 04:35:52;;;;;;;13.02;2.95;;;20.60;35.20;;;;;;5094781;28;20016;-74
2021/03/05 04:38:20;;;;;;;7.75;3.00;;;20.60;35.20;;;;;;5076476;28;20089;-73
2021/03/05 04:40:46;;;;;;;9.73;3.20;;;20.60;35.20;;;;;;5094750;28;20488;-73
2021/03/05 04:43:11;;;;;;;7.47;2.80;;;20.60;35.20;;;;;;5090547;28;20024;-73
2021/03/05 04:45:37;;;;;;;8.50;2.92;;;20.60;35.20;;;;;;5088135;28;20020;-73
2021/03/05 04:48:03;;;;;;;9.95;3.17;;;20.50;35.20;;;;;;5091559;28;20127;-72
2021/03/05 04:50:29;;;;;;;6.20;3.08;;;20.60;35.20;;;;;;5093847;28;20055;-73
2021/03/05 04:52:54;;;;;;;10.75;4.00;;;20.60;35.30;;;;;;5094514;28;20137;-72
2021/03/05 04:55:20;;;;;;;7.57;3.28;;;20.50;35.20;;;;;;5092601;28;20020;-72
2021/03/05 04:57:46;;;;;;;5.95;3.10;;;20.50;35.20;;;;;;5092899;28;20024;-72
2021/03/05 05:00:12;;;;;;;9.82;3.33;;;20.60;35.20;;;;;;5075372;28;20119;-72
2021/03/05 05:02:37;;;;;;;1.05;0.30;;;20.60;35.10;;;;;;5092271;28;20062;-73
2021/03/05 05:05:03;;;;;;;2.85;0.80;;;20.60;35.20;;;;;;5093271;28;20052;-72
2021/03/05 05:07:29;;;;;;;0.30;0.30;;;20.60;35.40;;;;;;5092268;28;20024;-73
2021/03/05 05:09:55;;;;;;;0.28;0.28;;;20.60;35.60;;;;;;5094234;28;20044;-73
2021/03/05 05:12:20;;;;;;;0.70;0.47;;;20.70;35.50;;;;;;5091839;28;20021;-73
2021/03/05 05:14:46;;;;;;;1.67;0.65;;;20.70;35.40;;;;;;5092850;28;20028;-73
2021/03/05 05:17:11;;;;;;;0.20;0.20;;;20.80;35.90;;;;;;5091969;28;20452;-73
2021/03/05 05:19:37;;;;;;;0.75;0.20;;;20.90;35.20;;;;;;5091543;28;20042;-73
2021/03/05 05:22:15;;;;;;;0.00;0.00;;;21.00;35.10;;;;;;5094572;28;20403;-72
2021/03/05 05:24:41;;;;;;;0.35;0.32;;;21.10;34.90;;;;;;5084560;28;20033;-73
2021/03/05 05:27:06;;;;;;;0.10;0.10;;;21.20;34.70;;;;;;5056472;28;20032;-73
2021/03/05 05:29:32;;;;;;;1.00;0.17;;;21.30;34.60;;;;;;5070592;28;20072;-73
2021/03/05 05:31:58;;;;;;;0.10;0.10;;;21.40;34.50;;;;;;5091114;28;20044;-73
2021/03/05 05:34:23;;;;;;;0.10;0.10;;;21.50;34.30;;;;;;5091301;28;20039;-73
2021/03/05 05:36:49;;;;;;;2.13;0.25;;;21.50;34.10;;;;;;5093233;28;20028;-73
2021/03/05 05:39:15;;;;;;;0.95;0.40;;;21.60;34.00;;;;;;5091678;28;20024;-73
2021/03/05 05:41:41;;;;;;;0.00;0.00;;;21.70;33.80;;;;;;5074271;28;20031;-73
2021/03/05 05:44:07;;;;;;;1.00;0.32;;;21.80;33.70;;;;;;5090204;28;20089;-73
2021/03/05 05:46:33;;;;;;;0.10;0.10;;;21.90;33.60;;;;;;5091319;28;20098;-73
2021/03/05 05:48:58;;;;;;;1.10;0.30;;;21.90;33.30;;;;;;5072143;28;20496;-73
2021/03/05 05:51:27;;;;;;;1.85;0.47;;;22.00;33.30;;;;;;5091169;28;20015;-73
2021/03/05 05:53:54;;;;;;;0.40;0.40;;;22.00;33.20;;;;;;5090332;28;20024;-75
2021/03/05 05:56:19;;;;;;;1.02;0.30;;;22.10;33.00;;;;;;5070295;28;20081;-75
2021/03/05 05:58:45;;;;;;;1.33;0.70;;;22.10;32.80;;;;;;5073317;28;20028;-75
2021/03/05 06:01:11;;;;;;;0.93;0.50;;;22.20;32.70;;;;;;5073620;28;20461;-75
2021/03/05 06:03:37;;;;;;;0.38;0.30;;;22.20;32.50;;;;;;5092137;28;20032;-75
2021/03/05 06:06:03;;;;;;;0.80;0.32;;;22.20;32.40;;;;;;5057810;28;20039;-75
2021/03/05 06:08:29;;;;;;;0.52;0.52;;;22.30;32.40;;;;;;5073614;28;20044;-75
2021/03/05 06:10:55;;;;;;;1.08;0.65;;;22.30;32.40;;;;;;5091347;28;20024;-75
2021/03/05 06:13:27;;;;;;;1.42;0.40;;;22.20;32.40;;;;;;5092093;28;20141;-75
2021/03/05 06:16:14;;;;;;;0.57;0.50;;;22.20;32.30;;;;;;5071716;28;20098;-75
2021/03/05 06:18:40;;;;;;;1.60;0.60;;;22.20;32.30;;;;;;5091862;28;20058;-75
2021/03/05 06:21:06;;;;;;;0.85;0.50;;;22.30;32.30;;;;;;5071165;28;20052;-75
2021/03/05 06:23:34;;;;;;;0.30;0.30;;;22.30;32.80;;;;;;5091756;28;20036;-75
2021/03/05 06:26:00;;;;;;;0.60;0.60;;;22.30;32.20;;;;;;5090883;28;20059;-75
2021/03/05 06:28:26;;;;;;;0.95;0.30;;;22.30;32.10;;;;;;5090551;28;20032;-76
2021/03/05 06:30:52;;;;;;;8.35;6.80;;;22.30;32.10;;;;;;5090458;28;20447;-74
2021/03/05 06:33:22;;;;;;;2.47;0.20;;;22.20;32.00;;;;;;5069634;28;20079;-73
2021/03/05 06:35:48;;;;;;;2.00;0.60;;;22.30;32.10;;;;;;5089847;28;20036;-72
2021/03/05 06:38:37;;;;;;;0.10;0.10;;;22.30;31.90;;;;;;5090723;28;20026;-72
2021/03/05 06:41:21;;;;;;;1.92;0.70;;;22.30;32.00;;;;;;5086691;28;20021;-72
2021/03/05 06:44:16;;;;;;;8.68;6.35;;;22.20;32.00;;;;;;5091133;28;20028;-73
2021/03/05 06:47:22;;;;;;;0.22;0.22;;;22.30;32.10;;;;;;5056793;28;20040;-72
2021/03/05 06:49:48;;;;;;;0.60;0.40;;;22.30;32.10;;;;;;5045855;28;20048;-73
2021/03/05 06:52:14;;;;;;;0.30;0.30;;;22.30;32.10;;;;;;5027365;28;20076;-73
2021/03/05 06:54:41;;;;;;;0.32;0.32;;;22.30;32.10;;;;;;5032459;28;20493;-72
2021/03/05 06:57:26;;;;;;;1.27;0.45;;;22.30;32.20;;;;;;5023656;28;20048;-72
2021/03/05 06:59:51;;;;;;;1.95;1.30;;;22.30;32.20;;;;;;5035792;28;20048;-72
2021/03/05 07:02:17;;;;;;;0.88;0.52;;;22.30;32.10;;;;;;5034020;28;20034;-72
2021/03/05 07:04:49;;;;;;;0.68;0.30;;;22.40;32.00;;;;;;5031975;28;20048;-72
2021/03/05 07:07:19;;;;;;;0.47;0.20;;;22.40;31.90;;;;;;5048784;28;20061;-72
2021/03/05 07:09:51;;;;;;;2.15;0.32;;;22.40;31.90;;;;;;5029882;28;20487;-72
2021/03/05 07:12:20;;;;;;;0.13;0.13;;;22.50;31.90;;;;;;5036777;28;20025;-72
2021/03/05 07:14:50;;;;;;;1.00;0.32;;;22.60;31.80;;;;;;5047586;28;20029;-72
2021/03/05 07:17:17;;;;;;;0.10;0.03;;;22.60;31.70;;;;;;5040023;28;20033;-72
2021/03/05 07:19:42;;;;;;;0.25;0.10;;;22.60;31.70;;;;;;5053480;28;20029;-72
2021/03/05 07:22:08;;;;;;;0.45;0.40;;;22.60;31.80;;;;;;5051537;28;20159;-73
2021/03/05 07:24:38;;;;;;;0.10;0.10;;;22.50;31.70;;;;;;5056437;28;20024;-72
2021/03/05 07:27:05;;;;;;;0.57;0.40;;;22.50;31.70;;;;;;5073276;28;20107;-72
2021/03/05 07:29:34;;;;;;;0.55;0.47;;;22.50;31.70;;;;;;5100303;28;20118;-72
2021/03/05 07:32:29;;;;;;;0.90;0.70;;;22.60;31.70;;;;;;5096102;28;20056;-72
2021/03/05 07:35:00;;;;;;;0.60;0.60;;;22.50;31.70;;;;;;5000133;28;20112;-73
2021/03/05 07:37:45;;;;;;;0.73;0.40;;;22.50;31.60;;;;;;5011142;28;20049;-72
2021/03/05 07:40:12;;;;;;;1.52;1.10;;;22.50;31.60;;;;;;4993915;28;20065;-72
2021/03/05 07:42:37;;;;;;;0.55;0.55;;;22.40;31.50;;;;;;4970391;28;20030;-72
2021/03/05 07:45:04;;;;;;;0.73;0.73;;;22.40;31.60;;;;;;5008491;28;20053;-72
2021/03/05 07:47:30;;;;;;;0.95;0.57;;;22.40;31.60;;;;;;5012337;28;20053;-72
2021/03/05 07:50:00;;;;;;;0.28;0.20;;;22.40;31.70;;;;;;4994026;28;20041;-72
2021/03/05 07:52:25;;;;;;;0.85;0.38;;;22.40;32.10;;;;;;4987866;28;20045;-73
2021/03/05 07:54:51;;;;;;;4.10;0.70;;;22.40;31.80;;;;;;5005867;28;20433;-72
2021/03/05 07:57:20;;;;;;;1.63;0.82;;;22.40;31.90;;;;;;4994082;28;20117;-73
2021/03/05 07:59:47;;;;;;;1.05;0.85;;;22.30;31.90;;;;;;4993307;28;20541;-72
2021/03/05 08:02:13;;;;;;;1.70;0.88;;;22.30;31.90;;;;;;4995320;28;20036;-73
2021/03/05 08:04:50;;;;;;;1.98;0.47;;;22.30;31.80;;;;;;5008293;28;20046;-72
2021/03/05 08:07:20;;;;;;;0.50;0.50;;;22.30;31.80;;;;;;5016955;28;20037;-72
2021/03/05 08:09:46;;;;;;;1.92;0.75;;;22.30;31.80;;;;;;5013827;28;20061;-73
2021/03/05 08:12:33;;;;;;;2.45;0.68;;;22.30;31.80;;;;;;5069594;28;20032;-73
2021/03/05 08:15:18;;;;;;;0.85;0.60;;;22.30;31.80;;;;;;5113277;28;20024;-72
2021/03/05 08:17:45;;;;;;;0.50;0.40;;;22.30;31.70;;;;;;5086440;28;20032;-72
2021/03/05 08:20:30;;;;;;;0.80;0.38;;;22.30;31.70;;;;;;5093966;28;20411;-72
2021/03/05 08:22:59;;;;;;;0.93;0.63;;;22.30;31.70;;;;;;5094478;28;20032;-72
2021/03/05 08:25:31;;;;;;;0.65;0.22;;;22.30;31.60;;;;;;5104195;28;20028;-73
2021/03/05 08:27:58;;;;;;;0.65;0.52;;;22.30;31.60;;;;;;5093843;28;20431;-72
2021/03/05 08:30:26;;;;;;;0.35;0.32;;;22.30;31.60;;;;;;5094246;28;20107;-72
2021/03/05 08:32:57;;;;;;;1.35;0.38;;;22.30;31.60;;;;;;5094318;28;20074;-72
2021/03/05 08:35:28;;;;;;;2.55;0.50;;;22.30;31.60;;;;;;5092814;28;20392;-73
2021/03/05 08:38:10;;;;;;;2.72;0.68;;;22.20;31.50;;;;;;5095300;28;20028;-72
2021/03/05 08:40:44;;;;;;;0.65;0.43;;;22.20;31.50;;;;;;5095382;28;20399;-72
2021/03/05 08:43:10;;;;;;;0.93;0.35;;;22.20;31.50;;;;;;5094119;28;20024;-73
2021/03/05 08:45:46;;;;;;;0.40;0.32;;;22.30;31.40;;;;;;5094435;28;20032;-72
2021/03/05 08:48:15;;;;;;;2.15;0.32;;;22.20;31.20;;;;;;5073045;28;20418;-72
2021/03/05 08:50:41;;;;;;;1.55;0.30;;;22.20;31.20;;;;;;5077105;28;20020;-72
2021/03/05 08:53:08;;;;;;;0.85;0.52;;;22.20;31.10;;;;;;5094805;28;20020;-72
2021/03/05 08:55:37;;;;;;;2.17;0.60;;;22.30;31.00;;;;;;5093549;28;20024;-72
2021/03/05 08:58:03;;;;;;;0.43;0.43;;;22.30;30.90;;;;;;5093937;28;20430;-72
2021/03/05 09:00:33;;;;;;;3.00;0.38;;;22.30;30.70;;;;;;5094537;28;20039;-72
2021/03/05 09:03:09;;;;;;;0.63;0.30;;;22.40;30.60;;;;;;5107877;28;20020;-72
2021/03/05 09:05:38;;;;;;;0.47;0.30;;;22.40;30.40;;;;;;5094167;28;20024;-72
2021/03/05 09:08:04;;;;;;;1.15;0.63;;;22.50;30.40;;;;;;5076975;28;20024;-72
2021/03/05 09:10:40;;;;;;;2.40;0.40;;;22.50;30.20;;;;;;5077262;28;20510;-73
2021/03/05 09:13:05;;;;;;;0.68;0.32;;;22.50;30.00;;;;;;5094849;28;20430;-72
2021/03/05 09:15:58;;;;;;;0.47;0.47;;;22.60;30.10;;;;;;5092614;28;20032;-72
2021/03/05 09:18:28;;;;;;;2.85;0.57;;;22.60;30.00;;;;;;5098031;28;20067;-72
2021/03/05 09:20:58;;;;;;;1.40;0.47;;;22.60;29.90;;;;;;5093604;28;20024;-72
2021/03/05 09:23:58;;;;;;;0.90;0.50;;;22.60;29.80;;;;;;5076978;28;20441;-72
2021/03/05 09:26:17;;;;;;;0.30;0.30;;;22.60;29.70;;;;;;5089976;28;20032;-72
2021/03/05 09:28:44;;;;;;;0.40;0.30;;;22.60;29.70;;;;;;5094477;28;20085;-72
2021/03/05 09:31:11;;;;;;;0.60;0.30;;;22.70;29.70;;;;;;5099360;28;20039;-72
2021/03/05 09:33:38;;;;;;;0.63;0.30;;;22.70;29.50;;;;;;5097187;28;20032;-72
2021/03/05 09:36:06;;;;;;;1.40;0.40;;;22.70;29.40;;;;;;5092220;28;20027;-72
2021/03/05 09:38:31;;;;;;;1.02;0.50;;;22.70;29.40;;;;;;5092927;28;20024;-72
2021/03/05 09:41:16;;;;;;;0.75;0.43;;;22.70;29.40;;;;;;5097028;28;20111;-72
2021/03/05 09:44:01;;;;;;;1.80;0.28;;;22.70;29.30;;;;;;5114693;28;20069;-72
2021/03/05 09:46:39;;;;;;;0.32;0.30;;;22.70;29.30;;;;;;5096553;28;20032;-72
2021/03/05 09:49:20;;;;;;;0.13;0.13;;;22.80;29.30;;;;;;5092094;28;20415;-72
2021/03/05 09:51:46;;;;;;;0.10;0.10;;;22.80;29.20;;;;;;5099493;28;20032;-72
2021/03/05 09:54:11;;;;;;;0.75;0.40;;;22.80;29.20;;;;;;5098113;28;20495;-72
2021/03/05 09:56:41;;;;;;;3.00;0.30;;;22.80;29.20;;;;;;5114338;28;20049;-72
2021/03/05 09:59:07;;;;;;;0.20;0.20;;;22.80;29.10;;;;;;5105394;28;20012;-72
2021/03/05 10:01:33;;;;;;;0.38;0.20;;;22.80;29.10;;;;;;5093631;28;20073;-72
2021/03/05 10:04:00;;;;;;;0.22;0.22;;;22.80;28.90;;;;;;5090944;28;20020;-72
2021/03/05 10:06:27;;;;;;;0.20;0.20;;;22.80;28.90;;;;;;5086512;28;20464;-72
2021/03/05 10:09:15;;;;;;;0.30;0.30;;;22.90;29.00;;;;;;5074469;28;20046;-72
2021/03/05 10:11:42;;;;;;;0.55;0.35;;;22.90;28.90;;;;;;5074908;28;20568;-73
2021/03/05 10:14:22;;;;;;;0.85;0.30;;;22.90;29.20;;;;;;5096499;28;20047;-73
2021/03/05 10:16:48;;;;;;;0.43;0.32;;;22.90;28.50;;;;;;5076616;28;20097;-73
2021/03/05 10:19:15;;;;;;;0.30;0.25;;;22.90;28.30;;;;;;5097676;28;20395;-72
2021/03/05 10:21:42;;;;;;;0.50;0.40;;;22.90;28.70;;;;;;5089850;28;20491;-73
2021/03/05 10:24:12;;;;;;;0.28;0.17;;;22.90;28.30;;;;;;5091353;28;20031;-73
2021/03/05 10:26:38;;;;;;;0.57;0.20;;;22.90;28.30;;;;;;5075465;28;20066;-73
2021/03/05 10:29:07;;;;;;;0.50;0.25;;;22.90;28.30;;;;;;5072011;28;20504;-73
2021/03/05 10:31:58;;;;;;;0.73;0.20;;;22.90;28.30;;;;;;5083714;28;20052;-72
2021/03/05 10:34:28;;;;;;;1.00;0.40;;;22.90;28.10;;;;;;5103894;28;20412;-73
2021/03/05 10:37:02;;;;;;;0.30;0.20;;;23.00;28.00;;;;;;5095648;28;20062;-73
2021/03/05 10:39:34;;;;;;;0.50;0.32;;;23.00;27.90;;;;;;5097344;28;20027;-73
2021/03/05 10:42:01;;;;;;;2.13;0.20;;;23.00;27.90;;;;;;5081594;28;20105;-73
2021/03/05 10:44:27;;;;;;;0.85;0.28;;;23.00;27.80;;;;;;5090712;28;20020;-73
2021/03/05 10:47:01;;;;;;;1.95;0.20;;;23.00;27.70;;;;;;5094140;28;20526;-73
2021/03/05 10:49:27;;;;;;;0.22;0.22;;;23.00;27.80;;;;;;5078411;28;20491;-73
2021/03/05 10:51:53;;;;;;;2.15;0.30;;;22.90;27.60;;;;;;5094321;28;20036;-73
2021/03/05 10:54:19;;;;;;;0.63;0.35;;;22.90;27.60;;;;;;5100154;28;20509;-73
2021/03/05 11:00:07;;;;;;;0.55;0.40;;;22.90;27.70;;;;;;5091942;28;20455;-73
2021/03/05 11:02:33;;;;;;;0.98;0.30;;;22.90;27.70;;;;;;5090126;28;20537;-73
2021/03/05 11:04:58;;;;;;;0.10;0.10;;;22.80;27.60;;;;;;5092820;28;20499;-73
2021/03/05 11:07:46;;;;;;;1.05;0.38;;;22.90;27.60;;;;;;5092617;28;20035;-73
2021/03/05 11:10:12;;;;;;;0.20;0.17;;;22.90;27.70;;;;;;5090563;28;20578;-72
2021/03/05 11:12:38;;;;;;;0.20;0.10;;;22.80;27.50;;;;;;5073801;28;20040;-72
2021/03/05 11:15:04;;;;;;;0.40;0.30;;;22.80;27.70;;;;;;5092053;28;20410;-78
2021/03/05 11:17:30;;;;;;;0.95;0.30;;;22.80;27.70;;;;;;5091288;28;20035;-77
2021/03/05 11:19:59;;;;;;;1.38;0.85;;;22.90;27.70;;;;;;5091061;28;20053;-77
2021/03/05 11:22:24;;;;;;;4.38;1.13;;;22.90;27.50;;;;;;5090116;28;20027;-77
2021/03/05 11:24:50;;;;;;;9.48;2.35;;;22.90;27.50;;;;;;5090804;28;20031;-76
2021/03/05 11:27:16;;;;;;;15.57;3.42;;;23.00;30.20;;;;;;5091373;28;20032;-78
2021/03/05 11:29:41;;;;;;;8.43;2.40;;;23.10;28.50;;;;;;5092366;28;20036;-78
2021/03/05 11:32:15;;;;;;;8.77;2.95;;;23.10;28.00;;;;;;5091219;28;20059;-78
2021/03/05 11:34:41;;;;;;;9.68;3.33;;;23.10;27.70;;;;;;5090664;28;20024;-78
2021/03/05 11:37:06;;;;;;;12.05;4.20;;;23.20;27.60;;;;;;5090854;28;20035;-79
2021/03/05 11:39:32;;;;;;;17.45;3.67;;;23.20;27.60;;;;;;5092582;28;20016;-79
2021/03/05 11:41:58;;;;;;;22.02;6.15;;;23.20;27.50;;;;;;5090524;28;20075;-78
2021/03/05 11:44:24;;;;;;;14.75;3.63;;;23.20;27.40;;;;;;5088110;28;20020;-78
2021/03/05 11:46:52;;;;;;;11.25;3.63;;;23.30;27.30;;;;;;5091572;28;20032;-79
2021/03/05 11:49:18;;;;;;;11.25;2.67;;;23.30;27.20;;;;;;5074053;28;20415;-79
2021/03/05 11:51:43;;;;;;;12.15;3.13;;;23.30;27.00;;;;;;5091994;28;20030;-79
2021/03/05 11:54:09;;;;;;;11.75;3.78;;;23.30;27.10;;;;;;5089552;28;20111;-79
2021/03/05 11:56:35;;;;;;;13.88;3.28;;;23.40;27.20;;;;;;5073138;28;20039;-79
2021/03/05 11:59:01;;;;;;;8.30;2.35;;;23.40;27.00;;;;;;5090329;28;20475;-78
2021/03/05 12:01:27;;;;;;;6.38;2.28;;;23.40;27.10;;;;;;5092997;28;20024;-78
2021/03/05 12:03:53;;;;;;;11.00;3.38;;;23.40;27.10;;;;;;5089388;28;20040;-78
2021/03/05 12:06:19;;;;;;;7.50;1.75;;;23.40;27.10;;;;;;5091539;28;20052;-77
2021/03/05 12:08:45;;;;;;;9.10;2.63;;;23.40;27.00;;;;;;5089578;28;20106;-77
2021/03/05 12:11:10;;;;;;;9.00;3.10;;;23.40;27.10;;;;;;5091459;28;20027;-78
2021/03/05 12:13:36;;;;;;;9.55;2.00;;;23.40;27.00;;;;;;5091373;28;20027;-78
2021/03/05 12:16:01;;;;;;;4.80;1.70;;;23.40;26.90;;;;;;5091709;28;20522;-78
2021/03/05 12:18:27;;;;;;;8.82;1.58;;;23.40;26.90;;;;;;5091228;28;20031;-78
2021/03/05 12:20:56;;;;;;;5.55;1.58;;;23.30;26.80;;;;;;5090024;28;20475;-77
2021/03/05 12:23:21;;;;;;;6.32;1.50;;;23.30;26.70;;;;;;5091382;28;20103;-78
2021/03/05 12:25:47;;;;;;;3.92;1.67;;;23.30;26.70;;;;;;5090152;28;20494;-78
2021/03/05 12:28:12;;;;;;;2.60;0.95;;;23.30;26.70;;;;;;5091631;28;20013;-77
2021/03/05 12:30:38;;;;;;;7.47;1.85;;;23.30;26.80;;;;;;5087378;28;20025;-78
2021/03/05 12:33:04;;;;;;;7.47;1.13;;;23.30;26.80;;;;;;5093593;28;20090;-78
2021/03/05 12:35:29;;;;;;;1.75;1.15;;;23.30;26.70;;;;;;5095189;28;20395;-77
2021/03/05 12:37:55;;;;;;;4.07;1.42;;;23.30;26.70;;;;;;5093903;28;20032;-79
2021/03/05 12:40:21;;;;;;;2.67;0.93;;;23.30;26.70;;;;;;5094829;28;20036;-78
2021/03/05 12:42:46;;;;;;;1.65;0.63;;;23.30;26.70;;;;;;5094031;28;20020;-79
2021/03/05 12:45:12;;;;;;;2.80;0.93;;;23.30;26.70;;;;;;5076169;28;20103;-78
2021/03/05 12:47:38;;;;;;;1.23;0.60;;;23.30;26.60;;;;;;5075518;28;20112;-78
2021/03/05 12:50:16;;;;;;;1.70;0.93;;;23.30;26.60;;;;;;5076608;28;20048;-78
2021/03/05 12:52:47;;;;;;;0.70;0.40;;;23.30;26.50;;;;;;5094492;28;20028;-78
2021/03/05 12:55:13;;;;;;;2.03;0.60;;;23.40;26.50;;;;;;5092779;28;20054;-78
2021/03/05 12:57:39;;;;;;;0.73;0.50;;;23.40;26.60;;;;;;5076408;28;20103;-78
2021/03/05 13:00:05;;;;;;;2.10;0.45;;;23.40;26.50;;;;;;5092425;28;20039;-78